createdAt,value
2022-11-30T00:00:00.932Z,19.15
2022-11-30T00:03:31.202Z,20.75
2022-11-30T00:06:23.631Z,19.95
2022-11-30T00:09:11.603Z,20.73
2022-11-30T00:11:58.590Z,20.05
2022-11-30T00:14:45.745Z,19.33
2022-11-30T00:17:32.890Z,22.25
2022-11-30T00:20:19.957Z,21.23
2022-11-30T00:23:10.069Z,21.00
2022-11-30T00:26:00.955Z,19.55
2022-11-30T00:28:48.058Z,20.60
2022-11-30T00:31:35.157Z,22.38
2022-11-30T00:34:22.203Z,21.98
2022-11-30T00:37:09.260Z,21.92
2022-11-30T00:39:56.321Z,21.92
2022-11-30T00:42:43.396Z,22.08
2022-11-30T00:45:30.415Z,21.15
2022-11-30T00:48:17.586Z,22.13
2022-11-30T00:51:06.248Z,22.65
2022-11-30T00:53:53.281Z,22.40
2022-11-30T00:56:40.381Z,21.25
2022-11-30T00:59:27.440Z,21.60
2022-11-30T01:02:15.546Z,21.88
2022-11-30T01:05:02.611Z,21.88
2022-11-30T01:07:49.647Z,23.65
2022-11-30T01:10:38.858Z,21.13
2022-11-30T01:13:25.922Z,18.67
2022-11-30T01:16:20.284Z,19.13
2022-11-30T01:19:07.351Z,20.33
2022-11-30T01:21:54.599Z,20.02
2022-11-30T01:24:41.659Z,18.42
2022-11-30T01:27:28.860Z,19.08
2022-11-30T01:30:16.036Z,18.15
2022-11-30T01:33:04.281Z,18.60
2022-11-30T01:36:22.120Z,18.08
2022-11-30T01:39:09.802Z,18.15
2022-11-30T01:41:57.037Z,17.90
2022-11-30T01:44:51.128Z,17.85
2022-11-30T01:47:48.053Z,18.70
2022-11-30T01:50:36.364Z,18.20
2022-11-30T01:53:24.835Z,17.08
2022-11-30T01:56:12.027Z,17.10
2022-11-30T01:58:59.168Z,16.65
2022-11-30T02:01:46.825Z,17.80
2022-11-30T02:04:36.568Z,17.60
2022-11-30T02:07:23.952Z,18.75
2022-11-30T02:10:17.222Z,17.52
2022-11-30T02:13:26.078Z,19.85
2022-11-30T02:16:29.928Z,18.55
2022-11-30T02:19:41.458Z,18.20
2022-11-30T02:22:58.101Z,19.50
2022-11-30T02:26:23.039Z,19.17
2022-11-30T02:29:16.884Z,19.95
2022-11-30T02:32:12.715Z,18.27
2022-11-30T02:35:02.644Z,19.88
2022-11-30T02:37:53.523Z,18.80
2022-11-30T02:40:40.565Z,18.60
2022-11-30T02:43:30.520Z,17.77
2022-11-30T02:46:31.293Z,18.63
2022-11-30T02:49:29.739Z,19.02
2022-11-30T02:52:20.217Z,19.20
2022-11-30T02:55:09.259Z,18.63
2022-11-30T02:57:56.279Z,19.67
2022-11-30T03:00:43.414Z,18.98
2022-11-30T03:03:30.472Z,20.27
2022-11-30T03:06:17.647Z,19.77
2022-11-30T03:09:04.825Z,18.30
2022-11-30T03:11:51.939Z,19.95
2022-11-30T03:14:39.004Z,18.85
2022-11-30T03:17:26.104Z,20.10
2022-11-30T03:20:13.143Z,20.35
2022-11-30T03:23:03.367Z,20.33
2022-11-30T03:28:37.620Z,18.65
2022-11-30T03:31:24.774Z,20.30
2022-11-30T03:34:11.878Z,19.50
2022-11-30T03:36:59.149Z,20.65
2022-11-30T03:39:46.271Z,19.40
2022-11-30T03:42:33.364Z,19.38
2022-11-30T03:45:20.432Z,19.92
2022-11-30T03:48:07.471Z,20.30
2022-11-30T03:50:54.562Z,21.35
2022-11-30T03:53:41.730Z,20.42
2022-11-30T03:56:28.863Z,19.88
2022-11-30T03:59:15.923Z,19.15
2022-11-30T04:02:03.020Z,19.92
2022-11-30T04:04:50.118Z,19.75
2022-11-30T04:07:37.246Z,19.13
2022-11-30T04:10:24.388Z,20.65
2022-11-30T04:13:11.495Z,19.60
2022-11-30T04:15:59.053Z,20.60
2022-11-30T04:18:46.218Z,20.58
2022-11-30T04:21:33.328Z,19.90
2022-11-30T04:24:20.399Z,19.90
2022-11-30T04:27:07.498Z,22.35
2022-11-30T04:29:54.698Z,21.50
2022-11-30T04:32:42.222Z,21.70
2022-11-30T04:35:29.383Z,20.13
2022-11-30T04:38:16.680Z,20.27
2022-11-30T04:41:08.624Z,22.00
2022-11-30T04:43:55.690Z,21.35
2022-11-30T04:46:42.829Z,21.10
2022-11-30T04:49:29.944Z,22.40
2022-11-30T04:52:17.135Z,22.48
2022-11-30T04:55:04.624Z,22.00
2022-11-30T04:57:51.813Z,22.88
2022-11-30T05:00:38.943Z,20.95
2022-11-30T05:03:26.048Z,22.90
2022-11-30T05:06:13.078Z,22.02
2022-11-30T05:09:00.169Z,22.45
2022-11-30T05:11:48.735Z,22.55
2022-11-30T05:14:35.835Z,22.80
2022-11-30T05:17:23.099Z,23.02
2022-11-30T05:20:10.512Z,22.98
2022-11-30T05:22:57.798Z,26.00
2022-11-30T05:25:45.444Z,24.33
2022-11-30T05:28:32.444Z,23.42
2022-11-30T05:31:19.484Z,24.17
2022-11-30T05:34:06.498Z,22.85
2022-11-30T05:36:53.763Z,25.35
2022-11-30T05:39:40.759Z,26.60
2022-11-30T05:42:28.346Z,24.92
2022-11-30T05:45:15.473Z,23.60
2022-11-30T05:48:02.538Z,21.98
2022-11-30T05:50:49.493Z,21.48
2022-11-30T05:53:37.141Z,24.63
2022-11-30T05:56:24.163Z,25.35
2022-11-30T05:59:12.028Z,23.88
2022-11-30T06:01:59.210Z,21.80
2022-11-30T06:04:46.536Z,22.48
2022-11-30T06:07:33.823Z,23.77
2022-11-30T06:10:21.705Z,23.17
2022-11-30T06:13:09.869Z,24.25
2022-11-30T06:16:00.120Z,24.45
2022-11-30T06:18:47.236Z,22.60
2022-11-30T06:21:34.833Z,23.50
2022-11-30T06:24:21.894Z,22.73
2022-11-30T06:27:09.210Z,24.25
2022-11-30T06:29:56.291Z,22.17
2022-11-30T06:32:47.874Z,21.92
2022-11-30T06:35:34.915Z,24.40
2022-11-30T06:38:22.316Z,22.23
2022-11-30T06:41:10.614Z,23.77
2022-11-30T06:43:57.711Z,24.35
2022-11-30T06:46:44.802Z,22.60
2022-11-30T06:49:31.869Z,25.10
2022-11-30T06:52:18.969Z,26.45
2022-11-30T06:55:06.636Z,24.38
2022-11-30T06:57:53.647Z,23.63
2022-11-30T07:00:41.272Z,22.85
2022-11-30T07:03:29.310Z,23.02
2022-11-30T07:06:16.460Z,24.08
2022-11-30T07:09:03.531Z,23.52
2022-11-30T07:11:50.734Z,22.67
2022-11-30T07:14:37.709Z,21.15
2022-11-30T07:17:24.833Z,22.52
2022-11-30T07:20:12.107Z,23.20
2022-11-30T07:23:19.194Z,21.67
2022-11-30T07:26:07.762Z,21.65
2022-11-30T07:28:55.596Z,22.30
2022-11-30T07:31:42.744Z,23.65
2022-11-30T07:34:29.922Z,23.88
2022-11-30T07:37:16.940Z,22.50
2022-11-30T07:40:05.647Z,21.85
2022-11-30T07:42:55.801Z,22.08
2022-11-30T07:48:30.803Z,23.75
2022-11-30T07:51:22.482Z,23.27
2022-11-30T07:54:09.638Z,23.65
2022-11-30T07:56:56.708Z,23.75
2022-11-30T07:59:43.687Z,23.33
2022-11-30T08:02:30.766Z,25.27
2022-11-30T08:05:17.864Z,23.42
2022-11-30T08:08:04.959Z,24.08
2022-11-30T08:10:51.971Z,22.25
2022-11-30T08:13:39.509Z,24.52
2022-11-30T08:16:28.740Z,25.67
2022-11-30T08:19:17.008Z,25.30
2022-11-30T08:22:04.038Z,25.17
2022-11-30T08:24:51.251Z,24.10
2022-11-30T08:27:38.543Z,24.73
2022-11-30T08:30:29.387Z,24.58
2022-11-30T08:33:19.362Z,26.88
2022-11-30T08:36:11.881Z,26.05
2022-11-30T08:39:00.559Z,26.23
2022-11-30T08:41:47.587Z,25.67
2022-11-30T08:44:34.573Z,26.45
2022-11-30T08:47:21.654Z,25.58
2022-11-30T08:50:09.086Z,24.88
2022-11-30T08:52:59.358Z,25.48
2022-11-30T08:55:59.455Z,28.15
2022-11-30T08:58:47.923Z,27.13
2022-11-30T09:01:34.978Z,26.05
2022-11-30T09:04:22.070Z,26.30
2022-11-30T09:07:09.928Z,24.85
2022-11-30T09:09:56.958Z,23.63
2022-11-30T09:12:44.038Z,24.35
2022-11-30T09:15:31.294Z,24.92
2022-11-30T09:18:18.467Z,23.90
2022-11-30T09:21:09.011Z,24.75
2022-11-30T09:23:57.009Z,23.52
2022-11-30T09:26:44.091Z,26.15
2022-11-30T09:29:31.072Z,26.25
2022-11-30T09:32:18.121Z,25.02
2022-11-30T09:35:08.668Z,25.88
2022-11-30T09:37:59.591Z,25.20
2022-11-30T09:40:48.358Z,25.42
2022-11-30T09:43:40.984Z,25.80
2022-11-30T09:46:55.238Z,23.83
2022-11-30T09:49:47.740Z,25.35
2022-11-30T09:52:43.076Z,25.30
2022-11-30T09:55:36.016Z,23.77
2022-11-30T09:58:28.536Z,24.95
2022-11-30T10:01:20.875Z,25.45
2022-11-30T10:04:27.773Z,22.83
2022-11-30T10:07:33.154Z,24.35
2022-11-30T10:10:34.864Z,24.15
2022-11-30T10:13:54.991Z,24.08
2022-11-30T10:16:54.080Z,24.73
2022-11-30T10:20:17.974Z,24.83
2022-11-30T10:23:04.919Z,25.65
2022-11-30T10:25:56.928Z,24.10
2022-11-30T10:28:54.915Z,24.17
2022-11-30T10:31:44.148Z,23.08
2022-11-30T10:34:36.079Z,18.07
2022-11-30T10:37:34.275Z,23.63
2022-11-30T10:40:28.751Z,22.40
2022-11-30T10:43:21.918Z,21.20
2022-11-30T10:46:19.500Z,23.05
2022-11-30T10:49:19.368Z,24.15
2022-11-30T10:52:08.960Z,22.13
2022-11-30T10:55:02.199Z,21.08
2022-11-30T10:57:58.591Z,21.77
2022-11-30T11:01:06.293Z,21.55
2022-11-30T11:04:14.048Z,21.23
2022-11-30T11:07:14.421Z,20.65
2022-11-30T11:10:02.450Z,20.33
2022-11-30T11:12:52.630Z,19.75
2022-11-30T11:18:29.710Z,19.35
2022-11-30T11:21:19.563Z,19.70
2022-11-30T11:24:10.865Z,18.58
2022-11-30T11:26:58.317Z,15.43
2022-11-30T11:30:01.355Z,19.65
2022-11-30T11:33:23.477Z,18.73
2022-11-30T11:36:15.149Z,19.23
2022-11-30T11:39:03.044Z,19.23
2022-11-30T11:41:50.185Z,21.27
2022-11-30T11:44:37.295Z,19.92
2022-11-30T11:47:27.684Z,19.85
2022-11-30T11:50:57.809Z,18.83
2022-11-30T11:53:51.398Z,19.55
2022-11-30T11:56:40.223Z,19.48
2022-11-30T12:00:15.672Z,19.40
2022-11-30T12:03:25.322Z,19.00
2022-11-30T12:06:16.038Z,19.70
2022-11-30T12:09:22.589Z,19.95
2022-11-30T12:12:13.545Z,19.63
2022-11-30T12:15:02.657Z,21.00
2022-11-30T12:18:23.961Z,19.45
2022-11-30T12:21:21.116Z,19.85
2022-11-30T12:24:11.180Z,20.02
2022-11-30T12:27:22.807Z,20.98
2022-11-30T12:30:13.019Z,20.30
2022-11-30T12:35:57.829Z,18.83
2022-11-30T12:38:49.762Z,19.55
2022-11-30T12:41:49.819Z,18.70
2022-11-30T12:44:56.928Z,18.38
2022-11-30T12:48:38.776Z,19.15
2022-11-30T12:51:36.242Z,18.60
2022-11-30T12:54:28.972Z,19.08
2022-11-30T12:57:31.814Z,18.77
2022-11-30T13:00:24.147Z,17.83
2022-11-30T13:03:29.800Z,17.10
2022-11-30T13:06:41.273Z,18.83
2022-11-30T13:09:41.544Z,17.52
2022-11-30T13:15:31.324Z,18.17
2022-11-30T13:18:21.215Z,16.20
2022-11-30T13:21:23.936Z,17.52
2022-11-30T13:24:24.786Z,16.52
2022-11-30T13:27:21.777Z,18.25
2022-11-30T13:30:27.177Z,17.05
2022-11-30T13:33:46.102Z,16.42
2022-11-30T13:36:39.274Z,18.17
2022-11-30T13:39:28.249Z,16.67
2022-11-30T13:42:43.900Z,15.65
2022-11-30T13:45:35.083Z,16.17
2022-11-30T13:48:42.552Z,16.25
2022-11-30T13:51:38.858Z,15.10
2022-11-30T13:54:57.439Z,15.10
2022-11-30T13:58:06.289Z,15.32
2022-11-30T14:01:21.320Z,15.68
2022-11-30T14:04:21.161Z,15.90
2022-11-30T14:07:38.558Z,15.98
2022-11-30T14:11:15.009Z,15.15
2022-11-30T14:14:44.812Z,15.45
2022-11-30T14:20:26.812Z,15.55
2022-11-30T14:23:19.305Z,15.82
2022-11-30T14:26:11.388Z,16.67
2022-11-30T14:29:02.373Z,17.17
2022-11-30T14:32:08.474Z,16.58
2022-11-30T14:35:03.734Z,16.52
2022-11-30T14:37:56.018Z,17.00
2022-11-30T14:40:51.046Z,17.42
2022-11-30T14:43:38.197Z,18.30
2022-11-30T14:46:25.758Z,16.85
2022-11-30T14:49:23.911Z,17.90
2022-11-30T14:52:15.776Z,17.00
2022-11-30T14:55:20.603Z,17.77
2022-11-30T14:58:31.058Z,16.00
2022-11-30T15:01:24.819Z,16.35
2022-11-30T15:04:16.723Z,15.35
2022-11-30T15:07:03.837Z,15.73
2022-11-30T15:10:00.226Z,17.02
2022-11-30T15:12:47.399Z,15.88
2022-11-30T15:15:40.203Z,15.85
2022-11-30T15:18:28.931Z,16.90
2022-11-30T15:21:20.563Z,16.88
2022-11-30T15:24:09.321Z,16.98
2022-11-30T15:27:11.075Z,17.73
2022-11-30T15:30:01.012Z,17.60
2022-11-30T15:32:52.468Z,17.73
2022-11-30T15:36:12.432Z,17.60
2022-11-30T15:38:54.051Z,16.98
2022-11-30T15:41:41.239Z,17.17
2022-11-30T15:44:42.100Z,17.25
2022-11-30T15:47:36.813Z,16.13
2022-11-30T15:50:26.996Z,16.25
2022-11-30T15:56:24.176Z,14.65
2022-11-30T15:59:14.320Z,15.10
2022-11-30T16:02:14.877Z,14.93
2022-11-30T16:05:12.350Z,14.27
2022-11-30T16:08:03.744Z,14.45
2022-11-30T16:10:51.412Z,14.70
2022-11-30T16:13:40.002Z,14.95
2022-11-30T16:16:30.964Z,14.50
2022-11-30T16:19:19.871Z,14.52
2022-11-30T16:22:10.759Z,14.32
2022-11-30T16:24:59.338Z,15.40
2022-11-30T16:27:48.710Z,14.73
2022-11-30T16:30:36.569Z,16.27
2022-11-30T16:33:28.259Z,15.20
2022-11-30T16:36:20.714Z,14.43
2022-11-30T16:39:12.710Z,15.45
2022-11-30T16:42:00.337Z,14.77
2022-11-30T16:44:47.738Z,13.93
2022-11-30T16:47:36.719Z,14.38
2022-11-30T16:50:23.950Z,13.55
2022-11-30T16:53:16.538Z,15.13
2022-11-30T16:56:04.057Z,16.48
2022-11-30T16:58:51.430Z,15.05
2022-11-30T17:01:43.583Z,14.43
2022-11-30T17:04:31.585Z,15.02
2022-11-30T17:07:19.362Z,12.77
2022-11-30T17:10:07.742Z,13.80
2022-11-30T17:12:55.410Z,12.02
2022-11-30T17:15:43.758Z,12.35
2022-11-30T17:18:31.332Z,13.07
2022-11-30T17:21:24.283Z,12.15
2022-11-30T17:24:12.436Z,11.98
2022-11-30T17:27:00.496Z,11.95
2022-11-30T17:29:47.996Z,12.45
2022-11-30T17:32:35.472Z,12.63
2022-11-30T17:35:23.354Z,11.93
2022-11-30T17:38:12.355Z,11.23
2022-11-30T17:40:59.819Z,10.27
2022-11-30T17:43:48.404Z,8.90
2022-11-30T17:46:38.789Z,9.18
2022-11-30T17:49:26.586Z,9.77
2022-11-30T17:52:14.068Z,9.80
2022-11-30T17:55:02.114Z,8.05
2022-11-30T17:57:50.202Z,8.00
2022-11-30T18:00:37.890Z,7.63
2022-11-30T18:03:25.969Z,7.57
2022-11-30T18:06:14.910Z,8.10
2022-11-30T18:09:02.795Z,7.25
2022-11-30T18:11:52.330Z,8.52
2022-11-30T18:14:40.104Z,8.60
2022-11-30T18:17:28.593Z,8.30
2022-11-30T18:20:16.828Z,9.60
2022-11-30T18:23:05.157Z,8.63
2022-11-30T18:25:53.165Z,8.88
2022-11-30T18:28:41.519Z,9.27
2022-11-30T18:31:30.911Z,9.32
2022-11-30T18:34:20.054Z,9.63
2022-11-30T18:37:08.299Z,10.10
2022-11-30T18:39:56.240Z,10.30
2022-11-30T18:42:44.322Z,10.07
2022-11-30T18:45:35.612Z,10.05
2022-11-30T18:48:23.359Z,10.32
2022-11-30T18:51:12.438Z,9.48
2022-11-30T18:54:04.393Z,10.27
2022-11-30T18:56:52.236Z,10.00
2022-11-30T18:59:43.193Z,10.30
2022-11-30T19:02:31.263Z,10.52
2022-11-30T19:05:36.160Z,10.15
2022-11-30T19:08:24.198Z,10.27
2022-11-30T19:11:12.286Z,10.30
2022-11-30T19:14:00.960Z,10.50
2022-11-30T19:16:49.370Z,11.00
2022-11-30T19:19:37.486Z,11.20
2022-11-30T19:22:30.658Z,11.70
2022-11-30T19:25:19.201Z,10.77
2022-11-30T19:28:07.436Z,11.65
2022-11-30T19:30:56.080Z,11.05
2022-11-30T19:33:46.295Z,11.63
2022-11-30T19:36:37.461Z,11.38
2022-11-30T19:39:25.708Z,10.02
2022-11-30T19:42:13.974Z,11.07
2022-11-30T19:45:02.226Z,12.02
2022-11-30T19:47:49.779Z,11.68
2022-11-30T19:50:38.623Z,12.73
2022-11-30T19:53:26.774Z,11.23
2022-11-30T19:56:17.787Z,12.43
2022-11-30T19:59:06.284Z,12.25
2022-11-30T20:01:54.765Z,12.25
2022-11-30T20:04:42.944Z,12.52
2022-11-30T20:07:31.671Z,13.15
2022-11-30T20:10:19.888Z,12.60
2022-11-30T20:13:08.028Z,12.63
2022-11-30T20:15:55.922Z,13.43
2022-11-30T20:18:46.568Z,12.43
2022-11-30T20:21:36.841Z,13.43
2022-11-30T20:24:29.588Z,14.10
2022-11-30T20:27:23.216Z,13.90
2022-11-30T20:30:12.451Z,14.30
2022-11-30T20:33:01.628Z,13.57
2022-11-30T20:35:49.382Z,14.37
2022-11-30T20:38:39.601Z,14.45
2022-11-30T20:41:28.738Z,14.88
2022-11-30T20:44:16.421Z,15.07
2022-11-30T20:47:04.228Z,14.68
2022-11-30T20:49:52.526Z,15.55
2022-11-30T20:52:40.818Z,15.25
2022-11-30T20:55:30.983Z,15.10
2022-11-30T21:01:21.082Z,14.20
2022-11-30T21:04:08.745Z,14.80
2022-11-30T21:06:56.443Z,15.07
2022-11-30T21:09:44.311Z,15.30
2022-11-30T21:12:31.437Z,15.50
2022-11-30T21:15:20.034Z,15.15
2022-11-30T21:18:07.318Z,14.90
2022-11-30T21:21:04.898Z,15.40
2022-11-30T21:23:52.467Z,15.30
2022-11-30T21:26:41.832Z,14.95
2022-11-30T21:29:29.016Z,15.18
2022-11-30T21:32:16.283Z,15.13
2022-11-30T21:35:03.717Z,15.65
2022-11-30T21:37:50.953Z,15.13
2022-11-30T21:40:37.976Z,13.98
2022-11-30T21:43:26.041Z,15.98
2022-11-30T21:46:16.028Z,14.93
2022-11-30T21:49:03.391Z,14.60
2022-11-30T21:51:50.528Z,13.70
2022-11-30T21:54:37.611Z,13.70
2022-11-30T21:57:24.622Z,12.90
2022-11-30T22:00:14.528Z,14.32
2022-11-30T22:03:01.604Z,14.23
2022-11-30T22:06:03.851Z,12.93
2022-11-30T22:08:51.196Z,14.82
2022-11-30T22:11:40.744Z,13.50
2022-11-30T22:14:27.883Z,15.82
2022-11-30T22:17:14.907Z,16.38
2022-11-30T22:20:02.048Z,14.88
2022-11-30T22:22:49.096Z,15.43
2022-11-30T22:25:36.098Z,16.50
2022-11-30T22:28:23.166Z,16.67
2022-11-30T22:31:12.555Z,16.92
2022-11-30T22:33:59.910Z,16.77
2022-11-30T22:36:47.612Z,15.55
2022-11-30T22:39:34.666Z,17.30
2022-11-30T22:42:21.740Z,16.38
2022-11-30T22:45:09.406Z,17.23
2022-11-30T22:47:56.753Z,17.42
2022-11-30T22:50:43.825Z,17.70
2022-11-30T22:53:30.952Z,17.20
2022-11-30T22:56:20.695Z,17.55
2022-11-30T22:59:10.990Z,17.25
2022-11-30T23:04:45.035Z,17.02
2022-11-30T23:07:32.514Z,16.80
2022-11-30T23:10:19.713Z,18.23
2022-11-30T23:13:06.756Z,18.23
2022-11-30T23:15:57.540Z,18.08
2022-11-30T23:18:48.579Z,18.08
2022-11-30T23:21:41.790Z,17.65
2022-11-30T23:24:29.057Z,18.92
2022-11-30T23:27:16.057Z,19.05
2022-11-30T23:30:03.110Z,19.27
2022-11-30T23:32:53.910Z,18.50
2022-11-30T23:35:44.447Z,18.83
2022-11-30T23:38:31.977Z,19.48
2022-11-30T23:41:19.210Z,17.10
2022-11-30T23:44:07.400Z,18.30
2022-11-30T23:46:54.488Z,18.98
2022-11-30T23:49:41.529Z,18.90
2022-11-30T23:52:28.597Z,17.88
2022-11-30T23:55:15.631Z,18.40
2022-11-30T23:58:02.637Z,18.05
